Terminal Aerodrome Forecast
Issued by NWS Shreveport, LA

Home | Current Version | Previous Version | Text Only | Print | Product List | Glossary On
Versions: 1 2 3 4 5 6 7 8 9 10 11 12 13 14 15 16 17 18 19
000
FTUS44 KSHV 300921 AAB
TAFGGG
TAF AMD
KGGG 300921Z 3009/3106 VRB03KT 1SM BR BKN250
      TEMPO 3009/3012 1/4SM FG BKN001
     FM301200 VRB03KT 2SM BR BKN003 BKN250
     FM301400 03003KT P6SM SCT025 BKN250
     FM301600 08006KT P6SM BKN025
     FM301800 07006KT P6SM BKN035
     FM302100 07006KT P6SM SCT040 BKN250=

USA.gov is the U.S. government's official web portal to all federal, state and local government web resources and services.